sensor_id;sensor_type;location;lat;lon;timestamp;pressure;altitude;pressure_sealevel;temperature;humidity
70343;BME280;57767;42.068;24.752;2023-09-30T00:00:00;99140.00;;;20.20;45.29
70343;BME280;57767;42.068;24.752;2023-09-30T00:01:02;99130.59;;;20.18;45.07
70343;BME280;57767;42.068;24.752;2023-09-30T00:02:04;99139.47;;;20.23;44.82
70343;BME280;57767;42.068;24.752;2023-09-30T00:03:06;99137.59;;;20.24;45.53
70343;BME280;57767;42.068;24.752;2023-09-30T00:04:08;99140.03;;;20.25;45.05
70343;BME280;57767;42.068;24.752;2023-09-30T00:05:10;99134.38;;;20.22;44.98
70343;BME280;57767;42.068;24.752;2023-09-30T00:06:12;99135.75;;;20.24;44.91
70343;BME280;57767;42.068;24.752;2023-09-30T00:07:14;99138.97;;;20.26;45.08
70343;BME280;57767;42.068;24.752;2023-09-30T00:08:16;99133.31;;;20.23;45.74
70343;BME280;57767;42.068;24.752;2023-09-30T00:09:17;99129.81;;;20.22;45.93
70343;BME280;57767;42.068;24.752;2023-09-30T00:10:19;99133.56;;;20.21;46.64
70343;BME280;57767;42.068;24.752;2023-09-30T00:11:21;99134.66;;;20.20;46.81
70343;BME280;57767;42.068;24.752;2023-09-30T00:12:22;99141.03;;;20.14;46.48
70343;BME280;57767;42.068;24.752;2023-09-30T00:13:24;99133.25;;;20.08;46.40
70343;BME280;57767;42.068;24.752;2023-09-30T00:14:26;99136.19;;;20.06;46.20
70343;BME280;57767;42.068;24.752;2023-09-30T00:15:27;99131.34;;;19.98;45.92
70343;BME280;57767;42.068;24.752;2023-09-30T00:16:29;99128.34;;;19.89;46.11
70343;BME280;57767;42.068;24.752;2023-09-30T00:17:31;99129.16;;;19.90;46.50
70343;BME280;57767;42.068;24.752;2023-09-30T00:18:32;99136.16;;;19.96;45.61
70343;BME280;57767;42.068;24.752;2023-09-30T00:19:34;99138.31;;;20.04;45.02
70343;BME280;57767;42.068;24.752;2023-09-30T00:20:36;99132.19;;;20.09;43.91
70343;BME280;57767;42.068;24.752;2023-09-30T00:21:37;99129.25;;;20.10;45.37
70343;BME280;57767;42.068;24.752;2023-09-30T00:22:39;99126.88;;;20.14;46.82
70343;BME280;57767;42.068;24.752;2023-09-30T00:23:41;99126.25;;;20.01;45.72
70343;BME280;57767;42.068;24.752;2023-09-30T00:24:45;99129.22;;;20.00;45.07
70343;BME280;57767;42.068;24.752;2023-09-30T00:25:47;99127.06;;;19.97;45.02
70343;BME280;57767;42.068;24.752;2023-09-30T00:26:51;99130.84;;;20.01;45.41
70343;BME280;57767;42.068;24.752;2023-09-30T00:27:53;99135.38;;;20.06;44.75
70343;BME280;57767;42.068;24.752;2023-09-30T00:28:54;99130.88;;;20.11;44.37
70343;BME280;57767;42.068;24.752;2023-09-30T00:29:56;99128.19;;;20.16;45.09
70343;BME280;57767;42.068;24.752;2023-09-30T00:30:58;99133.03;;;20.19;45.29
70343;BME280;57767;42.068;24.752;2023-09-30T00:32:00;99118.56;;;20.20;44.91
70343;BME280;57767;42.068;24.752;2023-09-30T00:33:01;99125.78;;;20.20;48.59
70343;BME280;57767;42.068;24.752;2023-09-30T00:34:03;99126.06;;;20.18;46.42
70343;BME280;57767;42.068;24.752;2023-09-30T00:35:06;99117.19;;;20.18;45.78
70343;BME280;57767;42.068;24.752;2023-09-30T00:36:13;99126.63;;;20.25;46.09
70343;BME280;57767;42.068;24.752;2023-09-30T00:37:14;99116.16;;;20.24;46.10
70343;BME280;57767;42.068;24.752;2023-09-30T00:38:16;99121.78;;;20.22;45.89
70343;BME280;57767;42.068;24.752;2023-09-30T00:39:17;99122.88;;;20.26;44.75
70343;BME280;57767;42.068;24.752;2023-09-30T00:40:19;99122.06;;;20.26;44.63
70343;BME280;57767;42.068;24.752;2023-09-30T00:41:21;99121.25;;;20.25;45.87
70343;BME280;57767;42.068;24.752;2023-09-30T00:42:22;99127.69;;;20.24;45.07
70343;BME280;57767;42.068;24.752;2023-09-30T00:43:24;99119.66;;;20.24;47.13
70343;BME280;57767;42.068;24.752;2023-09-30T00:44:26;99112.66;;;20.23;47.28
70343;BME280;57767;42.068;24.752;2023-09-30T00:45:28;99114.84;;;20.26;45.76
70343;BME280;57767;42.068;24.752;2023-09-30T00:46:37;99113.72;;;20.27;46.27
70343;BME280;57767;42.068;24.752;2023-09-30T00:47:41;99115.09;;;20.30;45.58
70343;BME280;57767;42.068;24.752;2023-09-30T00:48:43;99124.75;;;20.31;45.74
70343;BME280;57767;42.068;24.752;2023-09-30T00:49:45;99118.56;;;20.30;45.81
70343;BME280;57767;42.068;24.752;2023-09-30T00:50:47;99119.63;;;20.29;46.17
70343;BME280;57767;42.068;24.752;2023-09-30T00:51:49;99111.06;;;20.22;46.23
70343;BME280;57767;42.068;24.752;2023-09-30T00:52:51;99110.50;;;20.20;46.39
70343;BME280;57767;42.068;24.752;2023-09-30T00:53:54;99124.97;;;20.19;46.65
70343;BME280;57767;42.068;24.752;2023-09-30T00:54:57;99116.66;;;20.16;47.30
70343;BME280;57767;42.068;24.752;2023-09-30T00:55:59;99118.75;;;20.03;46.88
70343;BME280;57767;42.068;24.752;2023-09-30T00:57:01;99116.63;;;20.06;47.09
70343;BME280;57767;42.068;24.752;2023-09-30T00:58:04;99117.94;;;20.03;47.69
70343;BME280;57767;42.068;24.752;2023-09-30T00:59:06;99118.50;;;20.05;47.00
70343;BME280;57767;42.068;24.752;2023-09-30T01:00:08;99123.06;;;20.04;46.87
70343;BME280;57767;42.068;24.752;2023-09-30T01:01:14;99102.34;;;19.90;47.30
70343;BME280;57767;42.068;24.752;2023-09-30T01:02:19;99127.09;;;20.07;47.04
70343;BME280;57767;42.068;24.752;2023-09-30T01:03:22;99126.03;;;20.08;47.09
70343;BME280;57767;42.068;24.752;2023-09-30T01:04:24;99121.47;;;20.09;48.67
70343;BME280;57767;42.068;24.752;2023-09-30T01:05:28;99124.97;;;20.09;48.44
70343;BME280;57767;42.068;24.752;2023-09-30T01:06:29;99126.03;;;20.08;47.49
70343;BME280;57767;42.068;24.752;2023-09-30T01:07:31;99126.03;;;20.08;46.88
70343;BME280;57767;42.068;24.752;2023-09-30T01:08:33;99126.84;;;20.09;47.46
70343;BME280;57767;42.068;24.752;2023-09-30T01:09:35;99122.50;;;20.02;47.81
70343;BME280;57767;42.068;24.752;2023-09-30T01:10:38;99126.84;;;20.09;48.10
70343;BME280;57767;42.068;24.752;2023-09-30T01:11:40;99116.88;;;20.04;48.40
70343;BME280;57767;42.068;24.752;2023-09-30T01:12:42;99129.50;;;20.09;48.38
70343;BME280;57767;42.068;24.752;2023-09-30T01:13:44;99122.00;;;20.06;49.31
70343;BME280;57767;42.068;24.752;2023-09-30T01:14:46;99120.88;;;20.01;49.42
70343;BME280;57767;42.068;24.752;2023-09-30T01:15:48;99120.63;;;20.03;48.77
70343;BME280;57767;42.068;24.752;2023-09-30T01:16:49;99129.22;;;20.05;48.32
70343;BME280;57767;42.068;24.752;2023-09-30T01:17:52;99126.00;;;20.03;47.65
70343;BME280;57767;42.068;24.752;2023-09-30T01:18:53;99135.38;;;20.06;47.41
70343;BME280;57767;42.068;24.752;2023-09-30T01:19:57;99132.72;;;20.06;46.74
70343;BME280;57767;42.068;24.752;2023-09-30T01:21:04;99129.47;;;20.03;47.97
70343;BME280;57767;42.068;24.752;2023-09-30T01:22:06;99132.97;;;20.04;47.48
70343;BME280;57767;42.068;24.752;2023-09-30T01:23:13;99130.84;;;20.01;47.23
70343;BME280;57767;42.068;24.752;2023-09-30T01:24:15;99124.91;;;19.94;46.81
70343;BME280;57767;42.068;24.752;2023-09-30T01:25:17;99128.38;;;19.94;46.98
70343;BME280;57767;42.068;24.752;2023-09-30T01:26:18;99125.44;;;19.96;47.26
70343;BME280;57767;42.068;24.752;2023-09-30T01:27:20;99129.44;;;19.93;47.37
70343;BME280;57767;42.068;24.752;2023-09-30T01:28:22;99127.28;;;19.90;47.25
70343;BME280;57767;42.068;24.752;2023-09-30T01:29:24;99131.31;;;19.88;47.90
70343;BME280;57767;42.068;24.752;2023-09-30T01:30:30;99124.84;;;19.84;48.79
70343;BME280;57767;42.068;24.752;2023-09-30T01:31:33;99128.59;;;19.83;48.96
70343;BME280;57767;42.068;24.752;2023-09-30T01:32:35;99122.91;;;19.69;47.47
70343;BME280;57767;42.068;24.752;2023-09-30T01:33:36;99122.09;;;19.68;46.76
70343;BME280;57767;42.068;24.752;2023-09-30T01:34:39;99120.53;;;19.73;47.33
70343;BME280;57767;42.068;24.752;2023-09-30T01:35:40;99126.44;;;19.75;47.94
70343;BME280;57767;42.068;24.752;2023-09-30T01:36:43;99125.88;;;19.78;48.65
70343;BME280;57767;42.068;24.752;2023-09-30T01:37:45;99126.94;;;19.77;48.64
70343;BME280;57767;42.068;24.752;2023-09-30T01:38:46;99126.44;;;19.75;48.86
70343;BME280;57767;42.068;24.752;2023-09-30T01:39:48;99128.03;;;19.76;49.94
70343;BME280;57767;42.068;24.752;2023-09-30T01:40:52;99125.38;;;19.76;49.12
70343;BME280;57767;42.068;24.752;2023-09-30T01:41:57;99126.44;;;19.75;49.16
70343;BME280;57767;42.068;24.752;2023-09-30T01:42:59;99126.13;;;19.71;49.47
70343;BME280;57767;42.068;24.752;2023-09-30T01:44:01;99130.69;;;19.71;49.10
70343;BME280;57767;42.068;24.752;2023-09-30T01:45:03;99136.34;;;19.74;49.32
70343;BME280;57767;42.068;24.752;2023-09-30T01:46:04;99132.59;;;19.75;48.94
70343;BME280;57767;42.068;24.752;2023-09-30T01:47:07;99134.44;;;19.70;48.79
70343;BME280;57767;42.068;24.752;2023-09-30T01:48:10;99128.81;;;19.71;49.29
70343;BME280;57767;42.068;24.752;2023-09-30T01:49:13;99133.88;;;19.67;50.15
70343;BME280;57767;42.068;24.752;2023-09-30T01:50:14;99140.28;;;19.61;49.93
70343;BME280;57767;42.068;24.752;2023-09-30T01:51:16;99132.78;;;19.58;49.65
70343;BME280;57767;42.068;24.752;2023-09-30T01:52:18;99135.41;;;19.53;49.79
70343;BME280;57767;42.068;24.752;2023-09-30T01:53:19;99133.28;;;19.50;49.22
70343;BME280;57767;42.068;24.752;2023-09-30T01:54:21;99134.81;;;19.46;50.40
70343;BME280;57767;42.068;24.752;2023-09-30T01:55:23;99140.41;;;19.45;49.81
70343;BME280;57767;42.068;24.752;2023-09-30T01:56:25;99135.31;;;19.43;49.50
70343;BME280;57767;42.068;24.752;2023-09-30T01:57:27;99130.72;;;19.33;49.56
70343;BME280;57767;42.068;24.752;2023-09-30T01:58:28;99121.81;;;19.28;50.15
70343;BME280;57767;42.068;24.752;2023-09-30T01:59:30;99129.59;;;19.29;49.62
70343;BME280;57767;42.068;24.752;2023-09-30T02:00:32;99128.78;;;19.29;49.86
70343;BME280;57767;42.068;24.752;2023-09-30T02:01:36;99128.78;;;19.29;50.14
70343;BME280;57767;42.068;24.752;2023-09-30T02:02:38;99129.84;;;19.28;49.62
70343;BME280;57767;42.068;24.752;2023-09-30T02:03:40;99122.06;;;19.21;49.52
70343;BME280;57767;42.068;24.752;2023-09-30T02:04:43;99132.25;;;19.24;50.04
70343;BME280;57767;42.068;24.752;2023-09-30T02:05:45;99126.09;;;19.24;50.56
70343;BME280;57767;42.068;24.752;2023-09-30T02:06:47;99127.13;;;19.18;50.35
70343;BME280;57767;42.068;24.752;2023-09-30T02:07:49;99125.19;;;19.13;50.26
70343;BME280;57767;42.068;24.752;2023-09-30T02:08:51;99128.69;;;19.14;50.36
70343;BME280;57767;42.068;24.752;2023-09-30T02:09:53;99125.19;;;19.13;50.11
70343;BME280;57767;42.068;24.752;2023-09-30T02:10:55;99124.94;;;19.15;50.39
70343;BME280;57767;42.068;24.752;2023-09-30T02:11:56;99128.69;;;19.14;50.26
70343;BME280;57767;42.068;24.752;2023-09-30T02:12:58;99123.31;;;19.09;51.30
70343;BME280;57767;42.068;24.752;2023-09-30T02:14:04;99122.44;;;19.03;51.14
70343;BME280;57767;42.068;24.752;2023-09-30T02:15:07;99129.41;;;18.99;50.99
70343;BME280;57767;42.068;24.752;2023-09-30T02:16:13;99123.25;;;18.99;50.40
70343;BME280;57767;42.068;24.752;2023-09-30T02:17:15;99124.84;;;19.00;50.50
70343;BME280;57767;42.068;24.752;2023-09-30T02:18:17;99129.66;;;18.98;50.50
70343;BME280;57767;42.068;24.752;2023-09-30T02:19:19;99124.25;;;18.92;50.73
70343;BME280;57767;42.068;24.752;2023-09-30T02:20:21;99128.78;;;18.92;50.89
70343;BME280;57767;42.068;24.752;2023-09-30T02:21:27;99128.22;;;18.90;51.55
70343;BME280;57767;42.068;24.752;2023-09-30T02:22:29;99128.47;;;18.88;52.61
70343;BME280;57767;42.068;24.752;2023-09-30T02:23:31;99130.88;;;18.85;52.50
70343;BME280;57767;42.068;24.752;2023-09-30T02:24:33;99127.34;;;18.79;52.05
70343;BME280;57767;42.068;24.752;2023-09-30T02:25:34;99119.31;;;18.79;52.46
70343;BME280;57767;42.068;24.752;2023-09-30T02:26:36;99130.81;;;18.80;52.17
70343;BME280;57767;42.068;24.752;2023-09-30T02:27:41;99131.56;;;18.75;52.93
70343;BME280;57767;42.068;24.752;2023-09-30T02:28:43;99128.00;;;18.65;52.92
70343;BME280;57767;42.068;24.752;2023-09-30T02:29:45;99132.81;;;18.63;52.87
70343;BME280;57767;42.068;24.752;2023-09-30T02:30:46;99133.56;;;18.58;52.83
70343;BME280;57767;42.068;24.752;2023-09-30T02:31:48;99130.31;;;18.56;52.56
70343;BME280;57767;42.068;24.752;2023-09-30T02:32:50;99126.28;;;18.53;53.60
70343;BME280;57767;42.068;24.752;2023-09-30T02:33:52;99131.31;;;18.50;53.92
70343;BME280;57767;42.068;24.752;2023-09-30T02:34:53;99130.78;;;18.48;53.56
70343;BME280;57767;42.068;24.752;2023-09-30T02:35:55;99123.44;;;18.38;52.58
70343;BME280;57767;42.068;24.752;2023-09-30T02:36:56;99132.28;;;18.39;53.48
70343;BME280;57767;42.068;24.752;2023-09-30T02:37:58;99138.44;;;18.39;53.60
70343;BME280;57767;42.068;24.752;2023-09-30T02:39:00;99130.94;;;18.36;53.51
70343;BME280;57767;42.068;24.752;2023-09-30T02:40:05;99139.19;;;18.35;53.71
70343;BME280;57767;42.068;24.752;2023-09-30T02:41:11;99134.34;;;18.32;53.56
70343;BME280;57767;42.068;24.752;2023-09-30T02:42:12;99136.47;;;18.30;53.49
70343;BME280;57767;42.068;24.752;2023-09-30T02:43:14;99126.78;;;18.23;53.88
70343;BME280;57767;42.068;24.752;2023-09-30T02:44:16;99123.56;;;18.21;52.78
70343;BME280;57767;42.068;24.752;2023-09-30T02:45:17;99131.00;;;18.19;53.09
70343;BME280;57767;42.068;24.752;2023-09-30T02:46:19;99130.75;;;18.21;52.47
70343;BME280;57767;42.068;24.752;2023-09-30T02:47:21;99129.94;;;18.20;52.92
70343;BME280;57767;42.068;24.752;2023-09-30T02:48:23;99131.00;;;18.19;53.24
70343;BME280;57767;42.068;24.752;2023-09-30T02:49:24;99114.34;;;18.12;53.30
70343;BME280;57767;42.068;24.752;2023-09-30T02:50:26;99129.38;;;18.18;53.96
70343;BME280;57767;42.068;24.752;2023-09-30T02:51:28;99124.53;;;18.15;54.45
70343;BME280;57767;42.068;24.752;2023-09-30T02:52:31;99119.41;;;18.09;54.22
70343;BME280;57767;42.068;24.752;2023-09-30T02:53:32;99125.03;;;18.12;54.16
70343;BME280;57767;42.068;24.752;2023-09-30T02:54:34;99122.88;;;18.09;54.21
70343;BME280;57767;42.068;24.752;2023-09-30T02:55:36;99123.94;;;18.08;54.87
70343;BME280;57767;42.068;24.752;2023-09-30T02:56:38;99121.19;;;18.03;54.74
70343;BME280;57767;42.068;24.752;2023-09-30T02:57:39;99128.66;;;18.01;54.43
70343;BME280;57767;42.068;24.752;2023-09-30T02:58:41;99119.47;;;17.92;54.31
70343;BME280;57767;42.068;24.752;2023-09-30T02:59:44;99119.22;;;17.94;54.72
70343;BME280;57767;42.068;24.752;2023-09-30T03:00:49;99110.56;;;17.86;54.63
70343;BME280;57767;42.068;24.752;2023-09-30T03:01:51;99095.72;;;17.74;53.86
70343;BME280;57767;42.068;24.752;2023-09-30T03:02:53;99117.03;;;17.90;54.05
70343;BME280;57767;42.068;24.752;2023-09-30T03:03:55;99112.75;;;17.89;54.61
70343;BME280;57767;42.068;24.752;2023-09-30T03:04:57;99114.31;;;17.85;53.89
70343;BME280;57767;42.068;24.752;2023-09-30T03:05:59;99108.16;;;17.85;53.82
70343;BME280;57767;42.068;24.752;2023-09-30T03:07:01;99114.03;;;17.87;53.86
70343;BME280;57767;42.068;24.752;2023-09-30T03:08:04;99104.13;;;17.82;53.58
70343;BME280;57767;42.068;24.752;2023-09-30T03:09:06;99115.66;;;17.88;53.53
70343;BME280;57767;42.068;24.752;2023-09-30T03:10:08;99112.75;;;17.89;53.89
70343;BME280;57767;42.068;24.752;2023-09-30T03:11:10;99109.81;;;17.91;53.23
70343;BME280;57767;42.068;24.752;2023-09-30T03:12:14;99114.94;;;17.93;52.61
70343;BME280;57767;42.068;24.752;2023-09-30T03:13:15;99111.19;;;17.94;52.86
70343;BME280;57767;42.068;24.752;2023-09-30T03:14:19;99099.06;;;17.86;53.86
70343;BME280;57767;42.068;24.752;2023-09-30T03:15:22;99106.03;;;17.87;54.35
70343;BME280;57767;42.068;24.752;2023-09-30T03:16:25;99111.38;;;17.87;53.49
70343;BME280;57767;42.068;24.752;2023-09-30T03:17:26;99106.31;;;17.85;53.50
70343;BME280;57767;42.068;24.752;2023-09-30T03:18:30;99107.84;;;17.81;53.11
70343;BME280;57767;42.068;24.752;2023-09-30T03:19:32;99108.41;;;17.83;53.39
70343;BME280;57767;42.068;24.752;2023-09-30T03:20:34;99109.22;;;17.84;53.92
70343;BME280;57767;42.068;24.752;2023-09-30T03:21:37;99101.06;;;17.74;53.75
70343;BME280;57767;42.068;24.752;2023-09-30T03:22:40;99094.13;;;17.73;53.91
70343;BME280;57767;42.068;24.752;2023-09-30T03:23:43;99119.09;;;17.83;53.60
70343;BME280;57767;42.068;24.752;2023-09-30T03:24:45;99123.09;;;17.86;53.47
70343;BME280;57767;42.068;24.752;2023-09-30T03:25:47;99122.25;;;17.80;53.23
70343;BME280;57767;42.068;24.752;2023-09-30T03:26:52;99115.28;;;17.79;53.58
70343;BME280;57767;42.068;24.752;2023-09-30T03:27:54;99115.63;;;17.83;53.91
70343;BME280;57767;42.068;24.752;2023-09-30T03:28:58;99116.09;;;17.80;54.26
70343;BME280;57767;42.068;24.752;2023-09-30T03:30:00;99111.38;;;17.65;54.03
70343;BME280;57767;42.068;24.752;2023-09-30T03:31:03;99126.19;;;17.56;54.46
70343;BME280;57767;42.068;24.752;2023-09-30T03:32:06;99110.88;;;17.51;54.53
70343;BME280;57767;42.068;24.752;2023-09-30T03:33:08;99105.75;;;17.45;54.12
70343;BME280;57767;42.068;24.752;2023-09-30T03:34:10;99103.63;;;17.47;53.85
70343;BME280;57767;42.068;24.752;2023-09-30T03:35:13;99117.13;;;17.57;53.29
70343;BME280;57767;42.068;24.752;2023-09-30T03:36:23;99116.31;;;17.57;54.01
70343;BME280;57767;42.068;24.752;2023-09-30T03:37:27;99112.34;;;17.59;53.49
70343;BME280;57767;42.068;24.752;2023-09-30T03:38:29;99110.97;;;17.57;53.48
70343;BME280;57767;42.068;24.752;2023-09-30T03:39:30;99106.13;;;17.53;53.41
70343;BME280;57767;42.068;24.752;2023-09-30T03:40:34;99113.16;;;17.60;53.92
70343;BME280;57767;42.068;24.752;2023-09-30T03:41:35;99108.88;;;17.59;52.75
70343;BME280;57767;42.068;24.752;2023-09-30T03:42:39;99107.28;;;17.63;53.19
70343;BME280;57767;42.068;24.752;2023-09-30T03:43:41;99101.91;;;17.58;52.29
70343;BME280;57767;42.068;24.752;2023-09-30T03:44:43;99100.63;;;17.60;51.68
70343;BME280;57767;42.068;24.752;2023-09-30T03:45:44;99103.13;;;17.67;52.38
70343;BME280;57767;42.068;24.752;2023-09-30T03:46:46;99113.56;;;17.68;52.17
70343;BME280;57767;42.068;24.752;2023-09-30T03:47:48;99129.09;;;17.71;51.24
70343;BME280;57767;42.068;24.752;2023-09-30T03:48:53;99127.56;;;17.59;51.60
70343;BME280;57767;42.068;24.752;2023-09-30T03:49:55;99120.50;;;17.52;52.62
70343;BME280;57767;42.068;24.752;2023-09-30T03:50:56;99114.81;;;17.44;52.77
70343;BME280;57767;42.068;24.752;2023-09-30T03:51:58;99105.66;;;17.40;52.96
70343;BME280;57767;42.068;24.752;2023-09-30T03:53:03;99115.38;;;17.46;53.93
70343;BME280;57767;42.068;24.752;2023-09-30T03:54:08;99118.34;;;17.49;54.20
70343;BME280;57767;42.068;24.752;2023-09-30T03:55:13;99126.66;;;17.53;55.08
70343;BME280;57767;42.068;24.752;2023-09-30T03:56:22;99125.28;;;17.50;55.35
70343;BME280;57767;42.068;24.752;2023-09-30T03:57:24;99129.81;;;17.50;54.19
70343;BME280;57767;42.068;24.752;2023-09-30T03:58:25;99116.72;;;17.48;53.71
70343;BME280;57767;42.068;24.752;2023-09-30T03:59:27;99129.00;;;17.49;54.75
70343;BME280;57767;42.068;24.752;2023-09-30T04:00:29;99124.19;;;17.46;55.18
70343;BME280;57767;42.068;24.752;2023-09-30T04:01:31;99125.72;;;17.42;55.04
70343;BME280;57767;42.068;24.752;2023-09-30T04:02:33;99118.28;;;17.44;54.47
70343;BME280;57767;42.068;24.752;2023-09-30T04:03:35;99120.88;;;17.39;54.54
70343;BME280;57767;42.068;24.752;2023-09-30T04:04:39;99118.94;;;17.35;53.75
70343;BME280;57767;42.068;24.752;2023-09-30T04:05:40;99119.72;;;17.35;53.36
70343;BME280;57767;42.068;24.752;2023-09-30T04:06:43;99127.81;;;17.40;53.83
70343;BME280;57767;42.068;24.752;2023-09-30T04:07:44;99114.91;;;17.32;54.53
70343;BME280;57767;42.068;24.752;2023-09-30T04:08:46;99122.66;;;17.34;54.02
70343;BME280;57767;42.068;24.752;2023-09-30T04:09:48;99116.28;;;17.35;54.20
70343;BME280;57767;42.068;24.752;2023-09-30T04:10:52;99121.22;;;17.26;53.71
70343;BME280;57767;42.068;24.752;2023-09-30T04:11:53;99128.50;;;17.31;54.02
70343;BME280;57767;42.068;24.752;2023-09-30T04:12:55;99118.28;;;17.28;53.71
70343;BME280;57767;42.068;24.752;2023-09-30T04:13:57;99122.34;;;17.30;52.42
70343;BME280;57767;42.068;24.752;2023-09-30T04:15:00;99127.19;;;17.33;53.35
70343;BME280;57767;42.068;24.752;2023-09-30T04:16:01;99125.06;;;17.35;53.50
70343;BME280;57767;42.068;24.752;2023-09-30T04:17:04;99116.53;;;17.33;53.55
70343;BME280;57767;42.068;24.752;2023-09-30T04:18:06;99123.22;;;17.36;53.73
70343;BME280;57767;42.068;24.752;2023-09-30T04:19:08;99116.53;;;17.33;54.53
70343;BME280;57767;42.068;24.752;2023-09-30T04:20:11;99092.13;;;17.08;55.21
70343;BME280;57767;42.068;24.752;2023-09-30T04:21:18;99111.19;;;17.16;55.03
70343;BME280;57767;42.068;24.752;2023-09-30T04:22:20;99108.78;;;17.15;55.20
70343;BME280;57767;42.068;24.752;2023-09-30T04:23:22;99115.53;;;17.23;55.41
70343;BME280;57767;42.068;24.752;2023-09-30T04:24:24;99114.50;;;17.24;54.52
70343;BME280;57767;42.068;24.752;2023-09-30T04:25:26;99124.19;;;17.30;54.77
70343;BME280;57767;42.068;24.752;2023-09-30T04:26:28;99123.97;;;17.31;53.81
70343;BME280;57767;42.068;24.752;2023-09-30T04:27:30;99121.84;;;17.33;54.66
70343;BME280;57767;42.068;24.752;2023-09-30T04:28:31;99124.44;;;17.28;54.30
70343;BME280;57767;42.068;24.752;2023-09-30T04:29:35;99128.16;;;17.27;53.84
70343;BME280;57767;42.068;24.752;2023-09-30T04:30:37;99127.13;;;17.28;53.69
70343;BME280;57767;42.068;24.752;2023-09-30T04:31:39;99120.25;;;17.32;54.13
70343;BME280;57767;42.068;24.752;2023-09-30T04:32:43;99123.47;;;17.34;53.50
70343;BME280;57767;42.068;24.752;2023-09-30T04:33:45;99122.16;;;17.37;53.29
70343;BME280;57767;42.068;24.752;2023-09-30T04:34:47;99125.53;;;17.49;52.05
70343;BME280;57767;42.068;24.752;2023-09-30T04:35:48;99123.19;;;17.52;51.47
70343;BME280;57767;42.068;24.752;2023-09-30T04:36:50;99132.31;;;17.57;51.87
70343;BME280;57767;42.068;24.752;2023-09-30T04:37:53;99130.22;;;17.59;51.79
70343;BME280;57767;42.068;24.752;2023-09-30T04:38:55;99131.84;;;17.60;51.00
70343;BME280;57767;42.068;24.752;2023-09-30T04:39:57;99131.31;;;17.63;51.10
70343;BME280;57767;42.068;24.752;2023-09-30T04:41:01;99137.03;;;17.66;50.58
70343;BME280;57767;42.068;24.752;2023-09-30T04:42:04;99132.97;;;17.64;50.95
70343;BME280;57767;42.068;24.752;2023-09-30T04:43:06;99152.69;;;17.63;51.07
70343;BME280;57767;42.068;24.752;2023-09-30T04:44:08;99152.13;;;17.61;51.31
70343;BME280;57767;42.068;24.752;2023-09-30T04:45:12;99156.13;;;17.58;51.48
70343;BME280;57767;42.068;24.752;2023-09-30T04:46:14;99152.63;;;17.58;51.97
70343;BME280;57767;42.068;24.752;2023-09-30T04:47:16;99149.97;;;17.58;52.13
70343;BME280;57767;42.068;24.752;2023-09-30T04:48:20;99141.38;;;17.55;52.77
70343;BME280;57767;42.068;24.752;2023-09-30T04:49:21;99148.41;;;17.62;52.86
70343;BME280;57767;42.068;24.752;2023-09-30T04:50:25;99142.53;;;17.60;52.75
70343;BME280;57767;42.068;24.752;2023-09-30T04:51:26;99137.25;;;17.65;52.52
70343;BME280;57767;42.068;24.752;2023-09-30T04:52:29;99144.88;;;17.73;52.33
70343;BME280;57767;42.068;24.752;2023-09-30T04:53:31;99149.13;;;17.74;54.19
70343;BME280;57767;42.068;24.752;2023-09-30T04:54:35;99144.56;;;17.69;54.25
70343;BME280;57767;42.068;24.752;2023-09-30T04:55:37;99144.22;;;17.66;53.74
70343;BME280;57767;42.068;24.752;2023-09-30T04:56:39;99140.75;;;17.65;53.63
70343;BME280;57767;42.068;24.752;2023-09-30T04:57:40;99151.75;;;17.69;53.57
70343;BME280;57767;42.068;24.752;2023-09-30T04:58:43;99151.75;;;17.69;54.22
70343;BME280;57767;42.068;24.752;2023-09-30T04:59:45;99144.88;;;17.73;54.35
70343;BME280;57767;42.068;24.752;2023-09-30T05:00:48;99147.34;;;17.79;54.71
70343;BME280;57767;42.068;24.752;2023-09-30T05:01:49;99149.81;;;17.86;56.07
70343;BME280;57767;42.068;24.752;2023-09-30T05:02:52;99154.75;;;17.94;55.81
70343;BME280;57767;42.068;24.752;2023-09-30T05:03:54;99153.50;;;18.02;55.72
70343;BME280;57767;42.068;24.752;2023-09-30T05:04:56;99146.38;;;18.07;55.77
70343;BME280;57767;42.068;24.752;2023-09-30T05:05:57;99154.19;;;18.14;54.13
70343;BME280;57767;42.068;24.752;2023-09-30T05:06:59;99146.00;;;18.20;55.59
70343;BME280;57767;42.068;24.752;2023-09-30T05:08:01;99153.88;;;18.32;54.85
70343;BME280;57767;42.068;24.752;2023-09-30T05:09:04;99154.53;;;18.44;53.99
70343;BME280;57767;42.068;24.752;2023-09-30T05:10:06;99156.97;;;18.46;54.11
70343;BME280;57767;42.068;24.752;2023-09-30T05:11:14;99153.25;;;18.52;53.13
70343;BME280;57767;42.068;24.752;2023-09-30T05:12:16;99152.34;;;18.63;53.74
70343;BME280;57767;42.068;24.752;2023-09-30T05:13:18;99148.72;;;18.74;54.90
70343;BME280;57767;42.068;24.752;2023-09-30T05:14:20;99148.88;;;18.94;54.22
70343;BME280;57767;42.068;24.752;2023-09-30T05:15:22;99142.59;;;19.11;52.59
70343;BME280;57767;42.068;24.752;2023-09-30T05:16:24;99150.47;;;19.27;52.05
70343;BME280;57767;42.068;24.752;2023-09-30T05:17:28;99143.91;;;19.45;51.59
70343;BME280;57767;42.068;24.752;2023-09-30T05:18:30;99148.31;;;19.61;50.98
70343;BME280;57767;42.068;24.752;2023-09-30T05:19:32;99157.22;;;19.77;50.06
70343;BME280;57767;42.068;24.752;2023-09-30T05:20:33;99154.88;;;19.91;49.19
70343;BME280;57767;42.068;24.752;2023-09-30T05:21:37;99155.47;;;20.03;48.73
70343;BME280;57767;42.068;24.752;2023-09-30T05:22:40;99159.56;;;20.16;48.46
70343;BME280;57767;42.068;24.752;2023-09-30T05:23:46;99153.41;;;20.20;46.89
70343;BME280;57767;42.068;24.752;2023-09-30T05:24:48;99160.41;;;20.26;47.25
70343;BME280;57767;42.068;24.752;2023-09-30T05:25:50;99152.88;;;20.23;47.55